No requiere especial atencion con respecto al clima.   -   No hay Alarmas

Nearby METAR Reports

 

LELL - Sabadell, Spain
Distance from station: ONO 14km
Actualización: 20/06/2018 15:00
Despejado
Despejado
 Viento del ESE
Viento: ESE 19 km/h
Temperatura: 30°C
Rocío: 13°C
Humedad: 35%
Barómetro: 1019 hPa
Resumen: Despejado
Visibilidad: greater than 10 km
2018/06/20 13:00 LELL 201300Z 12010KT 070V160 CAVOK 30/13 Q1019
LEBL - Barcelona Airpor, Spain
Distance from station: SO 25km
Actualización: 20/06/2018 15:00
Despejado
Despejado
 Viento del SSE
Viento: SSE 11 km/h
Temperatura: 26°C
Rocío: 17°C
Humedad: 58%
Barómetro: 1019 hPa
Resumen: Despejado
Visibilidad: greater than 10 km
2018/06/20 13:00 LEBL 201300Z 15006KT 110V190 CAVOK 26/17 Q1019 NOSIG
 
LEGE - Gerona/Costa Bra, Spain
Distance from station: NE 65km
Actualización: 20/06/2018 15:00
Few Clouds
Few Clouds
 Viento del S
Viento: S 17 km/h
Temperatura: 31°C
Rocío: 12°C
Humedad: 31%
Barómetro: 1018 hPa
Clouds: Few Clouds
Visibilidad: 10 km
Cloud details: Few Clouds 914 m
2018/06/20 13:00 LEGE 201300Z 19009KT 160V240 9999 FEW030 31/12 Q1018
LERS - Reus (civ/Mil), Spain
Distance from station: OSO 96km
Actualización: 20/06/2018 15:00
Few Clouds
Few Clouds
 Viento del SE
Viento: SE 13 km/h
Temperatura: 29°C
Heat Index: 29°C
Rocío: 15°C
Humedad: 43%
Barómetro: 1019 hPa
Clouds: Few Clouds
Visibilidad: 10 km
Cloud details: Few Clouds 1219 m
2018/06/20 13:00 LERS 201300Z 14007KT 100V190 9999 FEW040 29/15 Q1019